Time;durP1;ratioP1;P1;durP2;ratioP2;P2;SDS_P1;SDS_P2;PMS_P1;PMS_P2;Temp;Humidity;BMP_temperature;BMP_pressure;BME280_temperature;BME280_humidity;BME280_pressure;Samples;Min_cycle;Max_cycle;Signal;HPM_P1;HPM_P2
2022/10/03 00:00:11;;;;;;;1.13;0.73;;;;;;;14.85;52.92;92743.94;5032571;28;20036;-76
2022/10/03 00:02:51;;;;;;;0.90;0.80;;;;;;;14.75;53.56;92749.50;5032321;28;20561;-76
2022/10/03 00:05:43;;;;;;;0.90;0.77;;;;;;;14.60;55.45;92745.41;5036997;28;20079;-76
2022/10/03 00:08:42;;;;;;;1.52;0.80;;;;;;;14.47;56.04;92754.94;5032402;28;20051;-76
2022/10/03 00:11:26;;;;;;;1.30;0.80;;;;;;;14.30;56.50;92753.00;5014514;28;20130;-76
2022/10/03 00:14:18;;;;;;;0.80;0.75;;;;;;;14.20;57.25;92749.84;5032280;28;20045;-77
2022/10/03 00:16:55;;;;;;;1.38;0.93;;;;;;;14.12;57.58;92748.72;5043441;28;20068;-75
2022/10/03 00:19:45;;;;;;;1.20;0.93;;;;;;;14.03;57.57;92753.16;5049350;28;20368;-75
2022/10/03 00:22:20;;;;;;;3.35;0.98;;;;;;;13.95;57.93;92752.78;5031385;28;20040;-76
2022/10/03 00:25:01;;;;;;;2.17;0.70;;;;;;;13.90;58.21;92749.50;5032096;28;20029;-75
2022/10/03 00:27:37;;;;;;;1.27;0.70;;;;;;;13.85;58.21;92753.03;5027325;28;20060;-76
2022/10/03 00:30:15;;;;;;;0.88;0.63;;;;;;;13.80;58.27;92752.38;5042741;28;20052;-77
2022/10/03 00:32:48;;;;;;;1.55;0.65;;;;;;;13.74;58.47;92749.88;5051661;28;20045;-76
2022/10/03 00:35:22;;;;;;;2.47;0.80;;;;;;;13.71;58.70;92754.94;5051667;28;20035;-76
2022/10/03 00:38:10;;;;;;;1.77;0.70;;;;;;;13.69;58.63;92750.00;5050912;28;20453;-76
2022/10/03 00:40:38;;;;;;;1.40;0.68;;;;;;;13.67;58.80;92748.75;5024633;28;20032;-76
2022/10/03 00:43:10;;;;;;;0.75;0.70;;;;;;;13.63;58.98;92755.66;5013742;28;20060;-76
2022/10/03 00:45:48;;;;;;;0.80;0.80;;;;;;;13.61;59.09;92749.91;5021690;28;20058;-76
2022/10/03 00:48:51;;;;;;;2.30;0.60;;;;;;;13.53;59.10;92749.56;5033152;28;20056;-76
2022/10/03 00:51:42;;;;;;;2.50;0.57;;;;;;;13.49;59.28;92751.22;4990178;28;20060;-76
2022/10/03 00:54:30;;;;;;;0.60;0.60;;;;;;;13.48;59.17;92751.50;4996831;28;20207;-76
2022/10/03 00:57:25;;;;;;;1.02;0.60;;;;;;;13.44;59.20;92748.72;5013499;28;20642;-76
2022/10/03 01:00:15;;;;;;;2.67;0.80;;;;;;;13.42;59.23;92752.69;5011789;28;20042;-76
2022/10/03 01:02:59;;;;;;;1.05;0.70;;;;;;;13.37;59.72;92753.59;5050763;28;20041;-76
2022/10/03 01:05:50;;;;;;;1.35;0.70;;;;;;;13.33;59.90;92755.28;5013167;28;20037;-75
2022/10/03 01:08:15;;;;;;;0.70;0.70;;;;;;;13.29;60.00;92760.34;5035139;28;20442;-76
2022/10/03 01:11:15;;;;;;;1.50;0.70;;;;;;;13.26;60.18;92754.84;5014507;28;20041;-76
2022/10/03 01:13:58;;;;;;;0.60;0.43;;;;;;;13.22;60.71;92759.94;4991880;28;20034;-76
2022/10/03 01:16:39;;;;;;;1.88;0.50;;;;;;;13.17;60.71;92757.41;5011049;28;20036;-76
2022/10/03 01:19:20;;;;;;;1.42;0.63;;;;;;;13.12;60.54;92758.28;5006089;28;20030;-76
2022/10/03 01:22:17;;;;;;;0.52;0.50;;;;;;;13.09;60.97;92758.88;5043160;28;20024;-75
2022/10/03 01:25:15;;;;;;;0.50;0.50;;;;;;;13.07;61.08;92755.00;4991851;28;20053;-76
2022/10/03 01:31:39;;;;;;;1.15;0.43;;;;;;;12.96;61.89;92764.91;4932774;28;20123;-76
2022/10/03 01:34:13;;;;;;;0.95;0.55;;;;;;;12.96;62.14;92767.56;5026981;28;20166;-76
2022/10/03 01:37:17;;;;;;;2.67;0.60;;;;;;;12.93;62.36;92762.88;5023273;28;20025;-76
2022/10/03 01:39:49;;;;;;;2.08;0.73;;;;;;;12.89;62.93;92761.91;5009588;28;20042;-76
2022/10/03 01:42:23;;;;;;;;;;;;;;;12.86;63.32;92763.28;5034308;28;20032;-76
2022/10/03 01:45:25;;;;;;;0.47;0.40;;;;;;;12.83;63.71;92769.09;5044207;28;19917;-76
2022/10/03 01:48:05;;;;;;;1.90;0.45;;;;;;;12.79;63.66;92775.22;5031859;28;20036;-76
2022/10/03 01:50:53;;;;;;;0.50;0.50;;;;;;;12.77;64.11;92775.53;5045519;28;20121;-76
2022/10/03 01:53:33;;;;;;;0.95;0.70;;;;;;;12.73;63.93;92773.78;5011847;28;20526;-76
2022/10/03 01:56:17;;;;;;;0.82;0.50;;;;;;;12.70;63.94;92775.94;5048965;28;20410;-76
2022/10/03 01:59:01;;;;;;;1.77;0.63;;;;;;;12.71;63.65;92776.69;5051598;28;20033;-76
2022/10/03 02:01:48;;;;;;;0.50;0.50;;;;;;;12.71;63.70;92776.69;5048880;28;20529;-76
2022/10/03 02:04:32;;;;;;;0.55;0.50;;;;;;;12.70;63.39;92775.94;5063418;28;20054;-76
2022/10/03 02:07:15;;;;;;;1.45;0.50;;;;;;;12.71;63.48;92774.84;5036557;28;20445;-76
2022/10/03 02:09:50;;;;;;;1.67;0.77;;;;;;;12.73;63.69;92776.41;5054225;28;20044;-76
2022/10/03 02:12:29;;;;;;;0.93;0.70;;;;;;;12.67;64.05;92779.13;5039976;28;20116;-76
2022/10/03 02:15:20;;;;;;;0.63;0.63;;;;;;;12.67;63.86;92784.38;5044564;28;20405;-76
2022/10/03 02:17:57;;;;;;;0.50;0.50;;;;;;;12.67;64.15;92787.00;5009442;28;20040;-76
2022/10/03 02:20:24;;;;;;;0.63;0.60;;;;;;;12.67;63.99;92786.22;5062550;28;20017;-76
2022/10/03 02:22:53;;;;;;;3.33;0.95;;;;;;;12.65;64.30;92793.63;5054956;28;20024;-75
2022/10/03 02:25:50;;;;;;;0.43;0.43;;;;;;;12.65;64.04;92797.03;5056175;28;20040;-76
2022/10/03 02:29:03;;;;;;;3.03;0.55;;;;;;;12.65;64.18;92797.03;5056394;28;20101;-75
2022/10/03 02:31:44;;;;;;;0.50;0.50;;;;;;;12.69;63.52;92799.84;5039069;28;20071;-75
2022/10/03 02:34:28;;;;;;;0.50;0.50;;;;;;;12.73;63.11;92789.56;5048391;28;20052;-75
2022/10/03 02:37:18;;;;;;;0.50;0.50;;;;;;;12.88;60.92;92789.28;5036050;28;20045;-76
2022/10/03 02:40:10;;;;;;;0.40;0.40;;;;;;;13.11;59.68;92790.91;5052932;28;20033;-76
2022/10/03 02:43:11;;;;;;;0.50;0.50;;;;;;;13.19;61.28;92793.91;5020886;28;20033;-76
2022/10/03 02:46:08;;;;;;;0.98;0.65;;;;;;;13.12;62.12;92802.97;5001075;28;20450;-76
2022/10/03 02:49:05;;;;;;;0.93;0.68;;;;;;;13.04;62.56;92803.66;5035077;28;20092;-76
2022/10/03 02:51:52;;;;;;;0.60;0.60;;;;;;;12.93;63.25;92804.94;5036011;28;20079;-76
2022/10/03 02:55:07;;;;;;;0.57;0.55;;;;;;;12.85;63.83;92806.38;5065605;28;20082;-76
2022/10/03 02:58:10;;;;;;;0.98;0.45;;;;;;;12.77;64.21;92812.31;5006037;28;20139;-76
2022/10/03 03:01:00;;;;;;;1.05;0.60;;;;;;;12.81;62.23;92802.00;4991592;28;20038;-76
2022/10/03 03:03:54;;;;;;;1.67;0.70;;;;;;;12.90;61.31;92814.19;5039009;28;20044;-76
2022/10/03 03:06:37;;;;;;;0.68;0.50;;;;;;;13.04;60.41;92819.44;5059077;28;20028;-76
2022/10/03 03:09:46;;;;;;;0.65;0.50;;;;;;;13.15;59.91;92817.38;5072773;28;20032;-76
2022/10/03 03:12:28;;;;;;;0.85;0.60;;;;;;;13.23;59.60;92819.31;5052705;28;20946;-76
2022/10/03 03:15:23;;;;;;;0.40;0.40;;;;;;;13.37;58.57;92823.81;5049193;28;20029;-76
2022/10/03 03:17:58;;;;;;;0.77;0.75;;;;;;;13.43;59.30;92818.16;5049575;28;20041;-76
2022/10/03 03:20:51;;;;;;;0.57;0.50;;;;;;;13.39;60.62;92825.06;5054919;28;20086;-76
2022/10/03 03:23:35;;;;;;;;;;;;;;;13.28;61.53;92828.97;5055325;28;20037;-76
2022/10/03 03:26:15;;;;;;;0.60;0.60;;;;;;;13.16;62.02;92823.41;5053358;28;19923;-76
2022/10/03 03:28:44;;;;;;;1.27;0.70;;;;;;;13.04;62.43;92832.56;5038204;28;20068;-76
2022/10/03 03:31:16;;;;;;;0.98;0.70;;;;;;;12.97;62.68;92836.63;5031967;28;20057;-76
2022/10/03 03:33:59;;;;;;;0.93;0.90;;;;;;;12.90;63.17;92832.56;5033013;28;20041;-76
2022/10/03 03:37:01;;;;;;;1.13;0.75;;;;;;;12.83;63.27;92831.38;5039228;28;20029;-76
2022/10/03 03:39:36;;;;;;;0.80;0.60;;;;;;;12.79;63.30;92827.78;5058853;28;20082;-76
2022/10/03 03:42:11;;;;;;;0.38;0.38;;;;;;;12.73;63.64;92829.72;5070626;28;20044;-76
2022/10/03 03:45:04;;;;;;;0.40;0.40;;;;;;;12.68;64.18;92832.44;5052579;28;20505;-76
2022/10/03 03:47:45;;;;;;;0.50;0.50;;;;;;;12.61;64.85;92834.66;5052451;28;20033;-76
2022/10/03 03:50:30;;;;;;;0.50;0.50;;;;;;;12.58;64.88;92833.38;5017561;28;20029;-76
2022/10/03 03:53:27;;;;;;;0.50;0.50;;;;;;;12.55;65.00;92828.72;5044733;28;20044;-76
2022/10/03 03:56:02;;;;;;;0.50;0.50;;;;;;;12.53;64.78;92841.38;5034541;28;20285;-76
2022/10/03 03:58:52;;;;;;;0.50;0.50;;;;;;;12.50;65.24;92839.31;5034063;28;20036;-76
2022/10/03 04:01:36;;;;;;;2.35;1.40;;;;;;;12.48;65.26;92828.34;5006879;28;20033;-76
2022/10/03 04:04:14;;;;;;;0.68;0.60;;;;;;;12.44;65.66;92835.22;5011304;28;20049;-75
2022/10/03 04:06:50;;;;;;;0.52;0.52;;;;;;;12.41;65.38;92830.56;5030893;28;20038;-75
2022/10/03 04:09:47;;;;;;;0.75;0.70;;;;;;;12.40;65.21;92834.22;5042485;28;20044;-76
2022/10/03 04:12:50;;;;;;;0.80;0.65;;;;;;;12.43;65.42;92838.94;5022968;28;20041;-76
2022/10/03 04:15:31;;;;;;;0.68;0.60;;;;;;;12.42;65.41;92845.22;5025703;28;20492;-75
2022/10/03 04:21:38;;;;;;;2.22;0.80;;;;;;;12.39;65.44;92832.69;5029305;28;20045;-76
2022/10/03 04:24:31;;;;;;;3.25;0.60;;;;;;;12.35;65.69;92831.69;5044176;28;20039;-76
2022/10/03 04:27:27;;;;;;;0.50;0.50;;;;;;;12.32;65.99;92833.06;5050933;28;20509;-76
2022/10/03 04:30:08;;;;;;;3.25;0.88;;;;;;;12.32;65.79;92834.91;5063954;28;20033;-76
2022/10/03 04:32:46;;;;;;;2.30;0.70;;;;;;;12.28;65.61;92838.09;5064463;28;20056;-76
2022/10/03 04:35:23;;;;;;;0.63;0.52;;;;;;;12.27;65.93;92835.75;5054112;28;20045;-76
2022/10/03 04:37:49;;;;;;;2.50;0.60;;;;;;;12.23;66.05;92837.41;5045223;28;20090;-74
2022/10/03 04:40:38;;;;;;;0.82;0.60;;;;;;;12.22;66.32;92835.84;5044031;28;20025;-75
2022/10/03 04:43:33;;;;;;;7.05;0.63;;;;;;;12.19;66.12;92839.81;5042065;28;20483;-75
2022/10/03 04:46:21;;;;;;;0.50;0.50;;;;;;;12.17;66.36;92841.94;5033550;28;20487;-75
2022/10/03 04:49:25;;;;;;;0.40;0.40;;;;;;;12.17;66.40;92844.56;5062149;28;20043;-74
2022/10/03 04:52:20;;;;;;;1.15;0.57;;;;;;;12.16;66.19;92839.59;5051430;28;20459;-75
2022/10/03 04:55:03;;;;;;;0.40;0.40;;;;;;;12.20;65.79;92844.00;5031892;28;20047;-75
2022/10/03 04:57:35;;;;;;;0.43;0.43;;;;;;;12.21;65.36;92844.78;5034942;28;20091;-75
2022/10/03 05:00:20;;;;;;;0.43;0.43;;;;;;;12.27;64.45;92849.66;5032644;28;20694;-76
2022/10/03 05:03:20;;;;;;;0.65;0.50;;;;;;;12.37;63.10;92843.47;5024177;28;20550;-77
2022/10/03 05:05:59;;;;;;;0.40;0.40;;;;;;;12.49;63.10;92837.75;5031331;28;20134;-78
2022/10/03 05:08:58;;;;;;;0.50;0.50;;;;;;;12.51;63.04;92835.63;5025351;28;20507;-78
2022/10/03 05:11:42;;;;;;;0.40;0.40;;;;;;;12.56;63.54;92843.41;5028583;28;20037;-78
2022/10/03 05:14:33;;;;;;;0.70;0.60;;;;;;;12.53;63.74;92846.63;5027788;28;20041;-78
2022/10/03 05:17:05;;;;;;;0.57;0.57;;;;;;;12.48;64.22;92846.72;4975558;28;20129;-78
2022/10/03 05:19:51;;;;;;;2.00;0.45;;;;;;;12.40;64.73;92850.00;4994656;28;20034;-78
2022/10/03 05:22:44;;;;;;;0.50;0.40;;;;;;;12.37;64.77;92855.81;5030166;28;20258;-77
2022/10/03 05:25:28;;;;;;;0.65;0.50;;;;;;;12.33;65.00;92860.09;5031394;28;20633;-78
2022/10/03 05:28:05;;;;;;;0.55;0.40;;;;;;;12.31;64.28;92868.22;5010118;28;20167;-77
2022/10/03 05:30:53;;;;;;;0.85;0.47;;;;;;;12.48;62.63;92867.72;5000422;28;20102;-78
2022/10/03 05:33:28;;;;;;;0.40;0.40;;;;;;;12.76;60.36;92867.75;5034506;28;20045;-77
2022/10/03 05:36:04;;;;;;;0.50;0.50;;;;;;;12.90;60.50;92868.56;5018199;28;20119;-77
2022/10/03 05:38:49;;;;;;;0.50;0.50;;;;;;;13.05;60.31;92870.91;5035046;28;20033;-77
2022/10/03 05:41:31;;;;;;;0.50;0.50;;;;;;;13.97;59.09;92868.28;5022884;28;20045;-77
2022/10/03 05:44:02;;;;;;;1.80;0.57;;;;;;;14.82;57.37;92860.53;5012328;28;20042;-78
2022/10/03 05:47:43;;;;;;;2.60;0.57;;;;;;;15.64;55.94;92873.38;5013520;28;20064;-77
2022/10/03 05:50:12;;;;;;;0.30;0.30;;;;;;;16.64;52.57;92872.50;5015465;28;20459;-77
2022/10/03 05:52:58;;;;;;;0.47;0.43;;;;;;;17.32;49.98;92866.56;5015299;28;20391;-79
2022/10/03 05:55:39;;;;;;;1.15;0.32;;;;;;;17.91;50.21;92874.50;5016174;28;20041;-78
2022/10/03 05:58:21;;;;;;;0.60;0.60;;;;;;;18.55;48.01;92883.22;5017511;28;20057;-79
2022/10/03 06:00:47;;;;;;;1.45;0.50;;;;;;;19.23;46.61;92885.50;5030702;28;20581;-79
2022/10/03 06:03:24;;;;;;;0.65;0.40;;;;;;;19.76;45.38;92873.94;5017304;28;20041;-79
2022/10/03 06:05:53;;;;;;;1.60;0.45;;;;;;;20.44;44.20;92885.75;5032116;28;20108;-78
2022/10/03 06:08:53;;;;;;;1.35;0.50;;;;;;;21.04;42.93;92885.09;5039404;28;20025;-78
2022/10/03 06:11:38;;;;;;;0.85;0.40;;;;;;;21.72;40.73;92876.88;5006416;28;20753;-78
2022/10/03 06:14:34;;;;;;;1.23;0.57;;;;;;;22.40;38.81;92877.59;5035515;28;20035;-78
2022/10/03 06:17:22;;;;;;;1.38;0.75;;;;;;;23.03;37.08;92877.31;5034794;28;20034;-78
2022/10/03 06:20:15;;;;;;;3.45;0.50;;;;;;;23.51;36.68;92884.19;5014112;28;20033;-78
2022/10/03 06:23:09;;;;;;;4.03;0.93;;;;;;;24.07;36.42;92884.34;5036728;28;20037;-79
2022/10/03 06:25:56;;;;;;;1.00;0.52;;;;;;;24.83;34.94;92891.41;5016364;28;20064;-79
2022/10/03 06:28:37;;;;;;;0.88;0.60;;;;;;;25.35;33.91;92896.94;5049940;28;20479;-79
2022/10/03 06:31:40;;;;;;;1.35;0.63;;;;;;;25.89;33.28;92890.13;5030096;28;20303;-78
2022/10/03 06:34:11;;;;;;;0.70;0.70;;;;;;;26.47;32.06;92879.75;5032967;28;20461;-79
2022/10/03 06:36:39;;;;;;;1.20;0.70;;;;;;;26.87;30.44;92886.84;5033029;28;20500;-79
2022/10/03 06:39:14;;;;;;;1.75;0.77;;;;;;;27.17;30.33;92893.84;5033966;28;20028;-79
2022/10/03 06:41:58;;;;;;;1.65;0.90;;;;;;;27.71;28.37;92894.69;5028816;28;20537;-79
2022/10/03 06:44:33;;;;;;;2.03;0.90;;;;;;;28.23;29.54;92888.91;5015403;28;20033;-78
2022/10/03 06:47:14;;;;;;;1.25;0.80;;;;;;;28.36;28.86;92892.72;5015373;28;20033;-79
2022/10/03 06:50:11;;;;;;;0.60;0.60;;;;;;;28.59;28.42;92895.00;5036830;28;20037;-79
2022/10/03 06:53:04;;;;;;;1.15;0.70;;;;;;;29.38;28.92;92893.91;5036890;28;20469;-79
2022/10/03 06:55:39;;;;;;;2.28;0.85;;;;;;;30.03;28.18;92892.28;5037409;28;20100;-79
2022/10/03 06:58:42;;;;;;;0.80;0.68;;;;;;;30.48;26.92;92894.19;5035066;28;20040;-79
2022/10/03 07:01:11;;;;;;;0.90;0.80;;;;;;;30.61;25.90;92900.63;5021024;28;20061;-82
2022/10/03 07:04:05;;;;;;;0.98;0.73;;;;;;;31.37;23.83;92894.28;5031712;28;20053;-83
2022/10/03 07:07:06;;;;;;;0.80;0.80;;;;;;;31.02;25.63;92899.00;5021590;28;20036;-84
2022/10/03 07:10:14;;;;;;;0.55;0.55;;;;;;;31.39;24.35;92886.53;5040314;28;20029;-80
2022/10/03 07:12:59;;;;;;;0.70;0.70;;;;;;;31.14;24.20;92879.53;5020939;28;20038;-79
2022/10/03 07:15:48;;;;;;;0.65;0.50;;;;;;;30.79;24.12;92886.16;5034441;28;20131;-79
2022/10/03 07:18:41;;;;;;;0.60;0.60;;;;;;;29.32;24.08;92893.56;5010995;28;20033;-80
2022/10/03 07:21:27;;;;;;;1.83;0.90;;;;;;;28.71;27.08;92887.66;5035457;28;20032;-79
2022/10/03 07:24:24;;;;;;;2.35;0.60;;;;;;;28.12;27.33;92891.63;5037867;28;20519;-80
2022/10/03 07:27:38;;;;;;;1.50;0.43;;;;;;;27.94;27.52;92888.94;5037620;28;20025;-81
2022/10/03 07:30:17;;;;;;;2.10;0.75;;;;;;;27.55;28.21;92903.13;5034755;28;20064;-82
2022/10/03 07:32:51;;;;;;;0.43;0.40;;;;;;;27.20;30.15;92899.25;5037249;28;20060;-79
2022/10/03 07:38:56;;;;;;;0.45;0.40;;;;;;;26.66;29.11;92895.59;5028328;28;20037;-79
2022/10/03 07:41:31;;;;;;;0.30;0.30;;;;;;;26.16;29.99;92906.03;5029788;28;20120;-79
2022/10/03 07:44:02;;;;;;;0.47;0.45;;;;;;;25.85;30.40;92910.78;5011421;28;20133;-79
2022/10/03 07:47:03;;;;;;;2.83;0.50;;;;;;;25.83;30.44;92907.69;5042697;28;20057;-78
2022/10/03 07:49:47;;;;;;;0.45;0.45;;;;;;;25.83;31.69;92913.06;5036054;28;20057;-78
2022/10/03 07:52:35;;;;;;;3.50;0.73;;;;;;;25.67;35.48;92909.84;5035795;28;20030;-78
2022/10/03 07:55:09;;;;;;;3.75;0.80;;;;;;;24.42;36.12;92918.03;5024286;28;20103;-78
2022/10/03 07:57:53;;;;;;;2.15;1.02;;;;;;;24.02;39.21;92911.34;5041824;28;20495;-78
2022/10/03 08:00:23;;;;;;;1.58;0.85;;;;;;;23.56;38.12;92918.66;5048224;28;20040;-78
2022/10/03 08:03:48;;;;;;;5.15;0.60;;;;;;;23.40;38.99;92927.53;5039187;28;20068;-79
2022/10/03 08:06:23;;;;;;;2.33;0.80;;;;;;;23.46;38.27;92925.34;5030037;28;20033;-79
2022/10/03 08:09:34;;;;;;;2.13;0.88;;;;;;;23.59;39.47;92923.28;5044135;28;20116;-79
2022/10/03 08:11:59;;;;;;;4.68;1.05;;;;;;;23.19;38.93;92932.50;5026702;28;20033;-79
2022/10/03 08:14:50;;;;;;;2.28;0.90;;;;;;;22.89;39.39;92940.31;5023757;28;20064;-79
2022/10/03 08:17:27;;;;;;;1.50;0.80;;;;;;;23.04;43.07;92942.16;5038297;28;20029;-79
2022/10/03 08:20:15;;;;;;;2.15;0.85;;;;;;;23.14;40.09;92943.47;5041268;28;20113;-79
2022/10/03 08:23:01;;;;;;;1.83;0.65;;;;;;;23.24;39.81;92945.59;5044519;28;20116;-79
2022/10/03 08:25:45;;;;;;;2.88;0.75;;;;;;;23.15;41.45;92947.69;5039745;28;20099;-79
2022/10/03 08:28:40;;;;;;;3.55;1.08;;;;;;;23.55;40.41;92954.50;5025681;28;20345;-79
2022/10/03 08:31:33;;;;;;;0.40;0.35;;;;;;;23.61;36.80;92950.41;5023589;28;20056;-79
2022/10/03 08:34:23;;;;;;;0.32;0.32;;;;;;;23.92;36.32;92943.31;5039720;28;20041;-79
2022/10/03 08:37:07;;;;;;;6.35;0.80;;;;;;;24.12;38.68;92944.75;5038561;28;20041;-79
2022/10/03 08:39:51;;;;;;;0.85;0.57;;;;;;;24.37;36.49;92939.00;5040140;28;20037;-80
2022/10/03 08:42:26;;;;;;;0.30;0.30;;;;;;;24.65;34.49;92950.09;5033348;28;20470;-80
2022/10/03 08:45:19;;;;;;;0.40;0.40;;;;;;;24.81;33.27;92947.22;5037261;28;20404;-80
2022/10/03 08:48:13;;;;;;;0.35;0.35;;;;;;;24.76;33.66;92941.44;5036652;28;20031;-81
2022/10/03 08:50:42;;;;;;;0.32;0.32;;;;;;;24.91;33.75;92951.19;5025971;28;20045;-80
2022/10/03 08:53:30;;;;;;;0.40;0.40;;;;;;;24.91;33.47;92945.81;5017880;28;20029;-80
2022/10/03 08:56:22;;;;;;;2.95;1.00;;;;;;;24.85;37.48;92955.31;5040890;28;20044;-80
2022/10/03 08:59:06;;;;;;;;;;;;;;;24.44;38.00;92949.78;5002931;28;20045;-80
2022/10/03 09:01:57;;;;;;;4.20;0.90;;;;;;;24.08;40.41;92947.38;5027774;28;20476;-80
2022/10/03 09:04:45;;;;;;;1.45;1.10;;;;;;;23.55;37.61;92947.25;5033052;28;20459;-80
2022/10/03 09:07:26;;;;;;;1.67;0.70;;;;;;;23.44;40.98;92944.41;5026151;28;20041;-79
2022/10/03 09:09:58;;;;;;;3.50;0.90;;;;;;;23.34;42.00;92947.66;5035255;28;20045;-81
2022/10/03 09:12:41;;;;;;;2.15;0.95;;;;;;;23.55;40.07;92938.47;5015903;28;20106;-80
2022/10/03 09:15:19;;;;;;;1.02;0.70;;;;;;;23.26;43.02;92938.75;5016661;28;20040;-80
2022/10/03 09:18:05;;;;;;;2.78;0.75;;;;;;;22.66;42.02;92941.00;5035277;28;20069;-80
2022/10/03 09:20:56;;;;;;;4.60;0.95;;;;;;;22.51;41.82;92942.59;5034269;28;20435;-81
2022/10/03 09:23:37;;;;;;;1.42;0.80;;;;;;;22.65;43.31;92940.25;5033703;28;20029;-80
2022/10/03 09:26:12;;;;;;;0.68;0.57;;;;;;;22.82;39.17;92933.69;5015811;28;20095;-80
2022/10/03 09:29:22;;;;;;;3.28;0.90;;;;;;;22.59;42.83;92938.97;5034823;28;20043;-80
2022/10/03 09:32:02;;;;;;;4.30;0.82;;;;;;;22.32;42.77;92932.69;4973529;28;20050;-80
2022/10/03 09:34:54;;;;;;;0.73;0.47;;;;;;;22.18;43.23;92935.78;5012801;28;20048;-80
2022/10/03 09:37:53;;;;;;;3.58;1.20;;;;;;;21.92;46.77;92940.91;5034473;28;20040;-80
2022/10/03 09:40:55;;;;;;;1.10;0.63;;;;;;;21.71;45.13;92941.19;5015552;28;20488;-80
2022/10/03 09:43:59;;;;;;;1.53;0.80;;;;;;;22.10;40.01;92936.75;5015426;28;20033;-80
2022/10/03 09:46:37;;;;;;;1.70;0.70;;;;;;;22.34;41.04;92937.69;5011564;28;20057;-80
2022/10/03 09:49:30;;;;;;;1.30;0.70;;;;;;;22.22;42.05;92947.34;5015272;28;20042;-79
2022/10/03 09:52:25;;;;;;;1.30;0.60;;;;;;;22.50;41.27;92934.97;5014287;28;20030;-80
2022/10/03 09:54:58;;;;;;;0.40;0.40;;;;;;;22.56;38.12;92931.66;5014622;28;20064;-80
2022/10/03 09:57:44;;;;;;;1.67;0.52;;;;;;;22.55;36.11;92938.09;5028784;28;20036;-80
2022/10/03 10:00:15;;;;;;;0.20;0.20;;;;;;;22.53;35.33;92928.91;5044363;28;20048;-80
2022/10/03 10:03:16;;;;;;;1.02;0.50;;;;;;;22.56;39.76;92928.22;5015976;28;20033;-78
2022/10/03 10:06:00;;;;;;;0.68;0.47;;;;;;;22.66;38.28;92928.44;5012679;28;20534;-78
2022/10/03 10:08:31;;;;;;;0.38;0.30;;;;;;;22.35;36.03;92917.88;4997674;28;20424;-80
2022/10/03 10:11:19;;;;;;;0.52;0.32;;;;;;;22.19;36.73;92917.88;5029224;28;20022;-79
2022/10/03 10:14:15;;;;;;;0.40;0.40;;;;;;;22.25;36.84;92913.88;5033248;28;20045;-80
2022/10/03 10:16:50;;;;;;;0.65;0.50;;;;;;;22.32;39.08;92907.91;5033012;28;20029;-79
2022/10/03 10:19:18;;;;;;;0.80;0.50;;;;;;;22.38;41.96;92911.84;5034562;28;20507;-80
2022/10/03 10:21:56;;;;;;;1.48;0.45;;;;;;;22.27;39.38;92908.97;5019515;28;20033;-79
2022/10/03 10:24:50;;;;;;;0.47;0.40;;;;;;;22.13;38.20;92908.59;5036488;28;20033;-78
2022/10/03 10:27:37;;;;;;;0.98;0.70;;;;;;;22.33;40.46;92912.13;5020631;28;20052;-80
2022/10/03 10:30:21;;;;;;;0.30;0.30;;;;;;;22.66;38.39;92906.31;5037778;28;20116;-80
2022/10/03 10:33:01;;;;;;;5.57;0.75;;;;;;;22.34;42.54;92898.44;5036465;28;20094;-80
2022/10/03 10:35:45;;;;;;;1.98;0.70;;;;;;;22.42;41.86;92908.13;5037304;28;20518;-79
2022/10/03 10:38:36;;;;;;;0.50;0.50;;;;;;;22.09;42.13;92907.75;5021327;28;20106;-79
2022/10/03 10:41:11;;;;;;;0.70;0.70;;;;;;;21.87;34.95;92909.19;5038335;28;20037;-78
2022/10/03 10:44:14;;;;;;;1.75;0.52;;;;;;;22.26;36.46;92909.31;5037511;28;20485;-79
2022/10/03 10:46:59;;;;;;;0.32;0.30;;;;;;;22.49;33.80;92907.50;5000100;28;20021;-80
2022/10/03 10:49:56;;;;;;;0.25;0.25;;;;;;;22.72;35.16;92899.59;5018716;28;20034;-79
2022/10/03 10:53:11;;;;;;;0.20;0.20;;;;;;;22.43;34.30;92898.25;5019032;28;20046;-79
2022/10/03 10:56:17;;;;;;;1.65;0.40;;;;;;;22.68;37.56;92892.63;4982212;28;20107;-79
2022/10/03 10:59:14;;;;;;;2.90;0.50;;;;;;;22.77;37.81;92890.53;5038303;28;20085;-78
2022/10/03 11:01:55;;;;;;;0.68;0.50;;;;;;;23.18;37.71;92881.00;5045090;28;20095;-79
2022/10/03 11:04:33;;;;;;;0.70;0.60;;;;;;;22.97;38.09;92884.03;5055770;28;20052;-79
2022/10/03 11:07:21;;;;;;;0.95;0.70;;;;;;;22.97;37.35;92878.69;5039798;28;20039;-80
2022/10/03 11:10:11;;;;;;;1.85;0.47;;;;;;;23.18;40.27;92886.34;5040398;28;20094;-80
2022/10/03 11:13:09;;;;;;;1.13;0.75;;;;;;;22.95;38.88;92878.28;5057881;28;20036;-80
2022/10/03 11:15:52;;;;;;;6.93;0.55;;;;;;;23.00;37.04;92878.00;5056185;28;20028;-79
2022/10/03 11:18:33;;;;;;;1.30;0.70;;;;;;;23.55;36.41;92869.75;5056858;28;20328;-80
2022/10/03 11:21:36;;;;;;;0.22;0.22;;;;;;;23.46;31.48;92882.59;5058184;28;20029;-80
2022/10/03 11:24:20;;;;;;;0.65;0.32;;;;;;;23.42;31.07;92882.56;5039695;28;20041;-80
2022/10/03 11:26:58;;;;;;;0.45;0.40;;;;;;;23.97;29.69;92873.47;5056580;28;20036;-80
2022/10/03 11:29:30;;;;;;;0.57;0.50;;;;;;;24.15;31.71;92874.50;5056920;28;20049;-80
2022/10/03 11:32:46;;;;;;;2.25;0.73;;;;;;;23.94;38.02;92872.31;5056955;28;20039;-80
2022/10/03 11:35:30;;;;;;;1.88;0.80;;;;;;;24.07;37.63;92878.19;5019568;28;20045;-80
2022/10/03 11:37:58;;;;;;;0.82;0.57;;;;;;;23.89;37.97;92872.63;5037451;28;20037;-80
2022/10/03 11:40:30;;;;;;;0.50;0.40;;;;;;;23.83;36.16;92858.00;5037549;28;20068;-80
2022/10/03 11:43:12;;;;;;;1.17;0.60;;;;;;;23.78;36.49;92869.78;5048273;28;20074;-81
2022/10/03 11:45:55;;;;;;;0.68;0.57;;;;;;;23.97;38.42;92868.13;5054316;28;20033;-79
2022/10/03 11:48:33;;;;;;;1.27;0.60;;;;;;;23.92;37.82;92863.09;5057120;28;20049;-78
2022/10/03 11:51:11;;;;;;;3.40;1.05;;;;;;;23.79;37.67;92873.97;5061039;28;20087;-79
2022/10/03 11:53:42;;;;;;;0.68;0.52;;;;;;;23.84;33.76;92862.97;5055590;28;20039;-79
2022/10/03 11:56:20;;;;;;;1.00;0.50;;;;;;;23.63;33.92;92865.31;5026534;28;20061;-79
2022/10/03 11:59:13;;;;;;;1.67;0.80;;;;;;;23.74;40.67;92862.81;5049290;28;20115;-79
2022/10/03 12:02:07;;;;;;;0.93;0.70;;;;;;;23.77;41.42;92854.84;5037814;28;20484;-79
2022/10/03 12:05:04;;;;;;;2.30;0.70;;;;;;;23.65;40.01;92861.16;5026186;28;20045;-80
2022/10/03 12:11:01;;;;;;;10.30;1.23;;;;;;;23.83;41.00;92850.00;5042843;28;20076;-79
2022/10/03 12:14:02;;;;;;;1.38;0.60;;;;;;;23.80;39.29;92853.38;5034849;28;20037;-79
2022/10/03 12:16:35;;;;;;;1.52;0.60;;;;;;;23.52;39.76;92849.13;5044125;28;20072;-80
2022/10/03 12:19:29;;;;;;;0.73;0.40;;;;;;;23.15;39.41;92846.25;5025002;28;20486;-80
2022/10/03 12:22:41;;;;;;;4.13;0.70;;;;;;;23.17;42.84;92850.09;5034535;28;20047;-80
2022/10/03 12:25:24;;;;;;;2.90;0.80;;;;;;;23.31;42.65;92849.56;4991583;28;20068;-81
2022/10/03 12:28:22;;;;;;;0.88;0.50;;;;;;;23.43;45.20;92841.34;5065454;28;20021;-81
2022/10/03 12:31:10;;;;;;;1.75;0.80;;;;;;;23.37;42.98;92842.78;5023076;28;20068;-81
2022/10/03 12:33:50;;;;;;;1.20;0.77;;;;;;;23.55;44.14;92847.63;5032287;28;20037;-80
2022/10/03 12:36:22;;;;;;;1.02;0.70;;;;;;;23.44;42.61;92848.25;5020853;28;20041;-80
2022/10/03 12:39:18;;;;;;;0.98;0.70;;;;;;;23.61;45.19;92851.53;5016122;28;20073;-80
2022/10/03 12:41:53;;;;;;;1.40;0.75;;;;;;;23.38;45.08;92847.00;5026168;28;20033;-80
2022/10/03 12:44:47;;;;;;;2.72;0.63;;;;;;;22.98;45.20;92840.19;5041957;28;20029;-80
2022/10/03 12:47:31;;;;;;;2.30;0.80;;;;;;;23.10;43.90;92844.59;5023943;28;20101;-80
2022/10/03 12:50:09;;;;;;;1.90;0.70;;;;;;;23.21;42.90;92844.78;5029996;28;20040;-80
2022/10/03 12:52:45;;;;;;;4.00;0.77;;;;;;;23.22;43.62;92843.69;5040178;28;20037;-80
2022/10/03 12:55:32;;;;;;;1.70;0.85;;;;;;;23.09;37.81;92837.75;5039172;28;20055;-80
2022/10/03 12:58:36;;;;;;;1.10;0.57;;;;;;;23.48;39.90;92837.59;5008868;28;20034;-80
2022/10/03 13:01:47;;;;;;;1.52;0.70;;;;;;;23.54;43.35;92830.81;5021298;28;20038;-80
2022/10/03 13:04:26;;;;;;;0.90;0.55;;;;;;;23.61;39.86;92830.16;4986293;28;20449;-80
2022/10/03 13:07:20;;;;;;;0.85;0.45;;;;;;;23.71;40.27;92824.22;4971974;28;20102;-80
2022/10/03 13:09:58;;;;;;;1.15;0.68;;;;;;;23.89;39.53;92830.59;5027448;28;20063;-79
2022/10/03 13:12:48;;;;;;;1.40;0.60;;;;;;;24.12;40.18;92827.09;5046277;28;20087;-79
2022/10/03 13:15:47;;;;;;;0.40;0.40;;;;;;;24.23;38.97;92828.00;5025318;28;20047;-79